createdAt,value
2023-12-13T00:01:28.355Z,97077.94
2023-12-13T00:03:58.243Z,97067.25
2023-12-13T00:06:27.397Z,97072.78
2023-12-13T00:08:56.602Z,97070.78
2023-12-13T00:11:27.321Z,97074.78
2023-12-13T00:13:56.581Z,97079.94
2023-12-13T00:16:25.887Z,97080.72
2023-12-13T00:18:55.355Z,97077.50
2023-12-13T00:21:24.484Z,97083.88
2023-12-13T00:23:53.805Z,97062.88
2023-12-13T00:26:25.145Z,97049.81
2023-12-13T00:28:56.067Z,97046.28
2023-12-13T00:31:25.316Z,97049.06
2023-12-13T00:33:54.784Z,97033.22
2023-12-13T00:36:23.972Z,97035.97
2023-12-13T00:38:54.361Z,97052.22
2023-12-13T00:41:25.638Z,97058.19
2023-12-13T00:43:56.436Z,97053.81
2023-12-13T00:46:26.107Z,97042.75
2023-12-13T00:48:58.690Z,97032.44
2023-12-13T00:51:28.367Z,97029.28
2023-12-13T00:53:57.560Z,97016.22
2023-12-13T00:56:26.749Z,97016.22
2023-12-13T00:58:57.232Z,97012.69
2023-12-13T01:01:26.633Z,97015.81
2023-12-13T01:03:55.952Z,97014.25
2023-12-13T01:06:25.043Z,97020.59
2023-12-13T01:08:54.149Z,97015.03
2023-12-13T01:11:25.756Z,97003.94
2023-12-13T01:13:56.251Z,97011.09
2023-12-13T01:16:25.700Z,97003.97
2023-12-13T01:18:54.984Z,97008.31
2023-12-13T01:21:24.415Z,97002.78
2023-12-13T01:23:53.751Z,97000.00
2023-12-13T01:26:26.145Z,96985.34
2023-12-13T01:28:56.983Z,96981.00
2023-12-13T01:31:26.291Z,96979.81
2023-12-13T01:33:55.513Z,96965.94
2023-12-13T01:36:24.725Z,96956.03
2023-12-13T01:38:53.977Z,96962.78
2023-12-13T01:41:23.399Z,96958.81
2023-12-13T01:43:52.678Z,96967.13
2023-12-13T01:46:23.312Z,96992.06
2023-12-13T01:48:53.325Z,97019.44
2023-12-13T01:51:24.229Z,97004.75
2023-12-13T01:53:53.853Z,96981.75
2023-12-13T01:56:23.314Z,96991.28
2023-12-13T01:58:53.043Z,96966.72
2023-12-13T02:01:23.767Z,96939.41
2023-12-13T02:03:52.966Z,96946.91
2023-12-13T02:06:22.363Z,96950.88
2023-12-13T02:08:51.400Z,96941.00
2023-12-13T02:11:20.533Z,96937.81
2023-12-13T02:13:50.576Z,96933.06
2023-12-13T02:16:19.804Z,96940.59
2023-12-13T02:18:50.446Z,96947.31
2023-12-13T02:21:19.645Z,96950.09
2023-12-13T02:23:51.780Z,96950.09
2023-12-13T02:26:24.025Z,96959.22
2023-12-13T02:28:53.382Z,96950.91
2023-12-13T02:31:25.755Z,96950.91
2023-12-13T02:33:55.894Z,96948.09
2023-12-13T02:36:25.036Z,96946.13
2023-12-13T02:38:55.632Z,96962.78
2023-12-13T02:41:24.800Z,96950.09
2023-12-13T02:43:53.955Z,96942.97
2023-12-13T02:46:25.299Z,96940.22
2023-12-13T02:48:57.659Z,96939.00
2023-12-13T02:51:27.465Z,96948.53
2023-12-13T02:53:59.098Z,96942.19
2023-12-13T02:56:28.309Z,96935.03
2023-12-13T02:58:57.441Z,96938.59
2023-12-13T03:01:26.618Z,96946.53
2023-12-13T03:03:55.942Z,96931.47
2023-12-13T03:06:25.124Z,96941.38
2023-12-13T03:08:54.258Z,96933.06
2023-12-13T03:11:24.728Z,96928.72
2023-12-13T03:13:53.914Z,96918.41
2023-12-13T03:16:24.825Z,96919.19
2023-12-13T03:18:54.249Z,96921.56
2023-12-13T03:21:23.373Z,96921.56
2023-12-13T03:23:52.561Z,96917.59
2023-12-13T03:26:21.693Z,96912.84
2023-12-13T03:28:52.187Z,96912.06
2023-12-13T03:31:21.424Z,96919.19
2023-12-13T03:33:50.645Z,96909.69
2023-12-13T03:36:20.968Z,96917.59
2023-12-13T03:38:50.122Z,96915.22
2023-12-13T03:41:19.215Z,96916.03
2023-12-13T03:43:48.544Z,96926.34
2023-12-13T03:46:19.083Z,96922.38
2023-12-13T03:48:48.322Z,96927.13
2023-12-13T03:51:17.423Z,96942.94
2023-12-13T03:53:46.513Z,96940.19
2023-12-13T03:56:16.092Z,96930.25
2023-12-13T03:58:45.218Z,96945.69
2023-12-13T04:01:14.458Z,96942.13
2023-12-13T04:03:45.143Z,96936.59
2023-12-13T04:06:14.373Z,96937.41
2023-12-13T04:08:43.508Z,96932.66
2023-12-13T04:11:12.674Z,96935.00
2023-12-13T04:13:41.784Z,96942.13
2023-12-13T04:16:11.348Z,96924.66
2023-12-13T04:18:40.461Z,96919.91
2023-12-13T04:21:11.299Z,96919.91
2023-12-13T04:23:40.448Z,96915.94
2023-12-13T04:26:09.659Z,96904.84
2023-12-13T04:28:38.750Z,96894.56
2023-12-13T04:31:08.385Z,96892.59
2023-12-13T04:33:37.474Z,96875.16
2023-12-13T04:36:08.203Z,96866.78
2023-12-13T04:38:38.680Z,96864.41
2023-12-13T04:41:07.983Z,96848.53
2023-12-13T04:43:37.313Z,96829.50
2023-12-13T04:46:06.993Z,96824.75
2023-12-13T04:48:39.211Z,96814.44
2023-12-13T04:51:09.085Z,96799.34
2023-12-13T04:53:39.609Z,96792.22
2023-12-13T04:56:10.095Z,96796.19
2023-12-13T04:58:39.223Z,96823.97
2023-12-13T05:01:10.005Z,96846.16
2023-12-13T05:03:41.935Z,96873.84
2023-12-13T05:06:12.250Z,96871.38
2023-12-13T05:08:42.844Z,96872.81
2023-12-13T05:11:12.036Z,96875.88
2023-12-13T05:13:41.279Z,96874.31
2023-12-13T05:16:12.802Z,96873.50
2023-12-13T05:18:42.019Z,96860.94
2023-12-13T05:21:11.208Z,96855.50
2023-12-13T05:23:40.805Z,96863.88
2023-12-13T05:26:11.361Z,96856.38
2023-12-13T05:28:40.504Z,96857.16
2023-12-13T05:31:20.606Z,96852.78
2023-12-13T05:33:50.616Z,96863.09
2023-12-13T05:36:20.290Z,96868.56
2023-12-13T05:38:52.003Z,96856.34
2023-12-13T05:41:24.634Z,96840.53
2023-12-13T05:43:53.748Z,96840.19
2023-12-13T05:46:22.866Z,96852.78
2023-12-13T05:48:52.402Z,96852.41
2023-12-13T05:51:21.665Z,96856.00
2023-12-13T05:53:51.116Z,96861.22
2023-12-13T05:56:20.567Z,96865.09
2023-12-13T05:58:51.225Z,96858.72
2023-12-13T06:01:20.471Z,96853.91
2023-12-13T06:03:49.608Z,96863.44
2023-12-13T06:06:19.019Z,96857.09
2023-12-13T06:08:48.196Z,96853.97
2023-12-13T06:11:20.157Z,96854.78
2023-12-13T06:13:53.389Z,96862.31
2023-12-13T06:16:22.580Z,96858.75
2023-12-13T06:18:51.653Z,96856.41
2023-12-13T06:21:20.743Z,96856.41
2023-12-13T06:23:49.920Z,96858.00
2023-12-13T06:26:19.065Z,96854.88
2023-12-13T06:28:48.242Z,96851.69
2023-12-13T06:31:19.428Z,96849.31
2023-12-13T06:33:48.653Z,96879.03
2023-12-13T06:36:17.775Z,96872.25
2023-12-13T06:38:47.756Z,96871.44
2023-12-13T06:41:16.846Z,96853.19
2023-12-13T06:43:45.953Z,96871.03
2023-12-13T06:46:15.408Z,96882.53
2023-12-13T06:48:45.938Z,96861.13
2023-12-13T06:51:15.681Z,96873.91
2023-12-13T06:53:45.632Z,96859.25
2023-12-13T06:56:15.033Z,96859.66
2023-12-13T06:58:44.213Z,96869.97
2023-12-13T07:01:13.505Z,96869.97
2023-12-13T07:03:42.673Z,96879.47
2023-12-13T07:06:17.365Z,96867.56
2023-12-13T07:08:46.738Z,96859.63
2023-12-13T07:11:15.815Z,96865.97
2023-12-13T07:13:45.313Z,96858.81
2023-12-13T07:16:15.189Z,96860.38
2023-12-13T07:18:44.743Z,96849.25
2023-12-13T07:21:23.461Z,96851.25
2023-12-13T07:23:52.580Z,96847.66
2023-12-13T07:26:21.602Z,96847.66
2023-12-13T07:28:51.057Z,96859.03
2023-12-13T07:31:23.248Z,96857.97
2023-12-13T07:33:52.525Z,96863.59
2023-12-13T07:36:23.753Z,96858.84
2023-12-13T07:38:52.902Z,96862.41
2023-12-13T07:41:22.190Z,96853.22
2023-12-13T07:43:51.573Z,96845.66
2023-12-13T07:46:20.702Z,96838.13
2023-12-13T07:48:52.786Z,96846.06
2023-12-13T07:51:23.334Z,96846.06
2023-12-13T07:53:52.534Z,96841.69
2023-12-13T07:56:27.860Z,96843.28
2023-12-13T07:58:59.628Z,96838.19
2023-12-13T08:01:29.838Z,96839.81
2023-12-13T08:03:59.873Z,96842.19
2023-12-13T08:06:30.386Z,96847.69
2023-12-13T08:08:59.457Z,96844.44
2023-12-13T08:11:31.225Z,96845.25
2023-12-13T08:14:02.856Z,96834.09
2023-12-13T08:16:34.405Z,96845.19
2023-12-13T08:19:03.642Z,96846.34
2023-12-13T08:21:34.259Z,96836.00
2023-12-13T08:24:03.622Z,96835.94
2023-12-13T08:26:32.669Z,96826.00
2023-12-13T08:29:06.083Z,96833.00
2023-12-13T08:31:36.904Z,96836.53
2023-12-13T08:34:06.177Z,96848.34
2023-12-13T08:36:36.717Z,96843.16
2023-12-13T08:39:07.336Z,96844.84
2023-12-13T08:41:39.940Z,96850.56
2023-12-13T08:44:11.895Z,96852.22
2023-12-13T08:46:41.028Z,96858.66
2023-12-13T08:49:10.225Z,96862.22
2023-12-13T08:51:40.780Z,96861.00
2023-12-13T08:54:09.844Z,96876.81
2023-12-13T08:56:38.847Z,96887.63
2023-12-13T08:59:09.078Z,96879.28
2023-12-13T09:01:38.321Z,96870.53
2023-12-13T09:04:07.522Z,96862.94
2023-12-13T09:06:36.904Z,96865.28
2023-12-13T09:09:11.029Z,96871.88
2023-12-13T09:11:44.065Z,96879.88
2023-12-13T09:14:13.144Z,96867.25
2023-12-13T09:16:42.380Z,96856.91
2023-12-13T09:19:11.553Z,96852.09
2023-12-13T09:21:41.866Z,96844.13
2023-12-13T09:24:13.254Z,96844.91
2023-12-13T09:26:42.369Z,96835.38
2023-12-13T09:29:13.886Z,96821.81
2023-12-13T09:31:43.067Z,96826.56
2023-12-13T09:34:12.127Z,96834.38
2023-12-13T09:36:41.633Z,96824.78
2023-12-13T09:39:17.195Z,96810.59
2023-12-13T09:41:56.139Z,96814.59
2023-12-13T09:44:27.537Z,96815.03
2023-12-13T09:47:00.844Z,96793.25
2023-12-13T09:49:37.768Z,96769.81
2023-12-13T09:52:13.065Z,96770.94
2023-12-13T09:54:47.142Z,96777.16
2023-12-13T09:57:16.861Z,96777.94
2023-12-13T09:59:47.161Z,96773.16
2023-12-13T10:02:20.577Z,96783.56
2023-12-13T10:04:51.284Z,96784.47
2023-12-13T10:07:23.388Z,96794.84
2023-12-13T10:09:56.896Z,96794.03
2023-12-13T10:12:27.604Z,96789.31
2023-12-13T10:14:56.752Z,96779.47
2023-12-13T10:17:25.887Z,96788.63
2023-12-13T10:19:57.697Z,96784.13
2023-12-13T10:22:27.669Z,96765.09
2023-12-13T10:24:59.595Z,96757.91
2023-12-13T10:27:29.393Z,96740.81
2023-12-13T10:29:58.484Z,96748.25
2023-12-13T10:32:27.889Z,96746.66
2023-12-13T10:34:57.132Z,96743.06
2023-12-13T10:37:32.031Z,96745.41
2023-12-13T10:40:02.856Z,96771.44
2023-12-13T10:42:33.928Z,96776.19
2023-12-13T10:45:05.808Z,96774.00
2023-12-13T10:47:37.900Z,96773.22
2023-12-13T10:50:10.453Z,96772.81
2023-12-13T10:52:44.367Z,96776.31
2023-12-13T10:55:17.322Z,96757.25
2023-12-13T10:57:49.644Z,96773.06
2023-12-13T11:00:20.336Z,96769.94
2023-12-13T11:02:54.598Z,96781.78
2023-12-13T11:05:24.508Z,96777.50
2023-12-13T11:07:54.017Z,96781.06
2023-12-13T11:10:24.991Z,96782.47
2023-12-13T11:12:56.269Z,96784.34
2023-12-13T11:15:28.130Z,96784.75
2023-12-13T11:18:00.389Z,96783.69
2023-12-13T11:20:31.743Z,96775.94
2023-12-13T11:23:01.062Z,96772.78
2023-12-13T11:25:41.048Z,96768.38
2023-12-13T11:28:10.255Z,96785.66
2023-12-13T11:30:43.874Z,96783.78
2023-12-13T11:33:13.956Z,96786.63
2023-12-13T11:35:43.333Z,96767.94
2023-12-13T11:38:12.553Z,96776.19
2023-12-13T11:40:44.006Z,96780.25
2023-12-13T11:43:16.828Z,96772.38
2023-12-13T11:45:52.003Z,96780.63
2023-12-13T11:48:21.151Z,96781.00
2023-12-13T11:50:52.520Z,96771.44
2023-12-13T11:53:21.787Z,96764.22
2023-12-13T11:55:52.339Z,96757.00
2023-12-13T11:58:21.619Z,96753.75
2023-12-13T12:00:50.739Z,96749.72
2023-12-13T12:03:19.993Z,96754.06
2023-12-13T12:05:50.356Z,96734.63
2023-12-13T12:08:25.829Z,96731.81
2023-12-13T12:10:57.744Z,96736.25
2023-12-13T12:13:27.004Z,96736.34
2023-12-13T12:15:56.522Z,96733.94
2023-12-13T12:18:25.837Z,96728.38
2023-12-13T12:20:54.957Z,96733.13
2023-12-13T12:23:24.136Z,96731.22
2023-12-13T12:25:56.453Z,96727.69
2023-12-13T12:28:27.883Z,96737.91
2023-12-13T12:30:57.091Z,96736.22
2023-12-13T12:33:26.328Z,96741.66
2023-12-13T12:35:55.560Z,96742.31
2023-12-13T12:38:24.757Z,96752.53
2023-12-13T12:40:55.356Z,96761.22
2023-12-13T12:43:24.804Z,96768.88
2023-12-13T12:45:54.026Z,96763.44
2023-12-13T12:48:24.155Z,96763.63
2023-12-13T12:50:53.319Z,96770.75
2023-12-13T12:53:22.947Z,96765.19
2023-12-13T12:56:01.402Z,96747.03
2023-12-13T12:58:30.934Z,96762.91
2023-12-13T13:01:00.290Z,96769.22
2023-12-13T13:03:29.554Z,96763.16
2023-12-13T13:05:58.744Z,96763.59
2023-12-13T13:08:28.226Z,96761.59
2023-12-13T13:11:01.367Z,96757.28
2023-12-13T13:13:30.578Z,96765.25
2023-12-13T13:15:59.796Z,96761.28
2023-12-13T13:18:29.099Z,96748.50
2023-12-13T13:20:58.340Z,96747.63
2023-12-13T13:23:29.947Z,96740.44
2023-12-13T13:26:00.852Z,96740.38
2023-12-13T13:28:30.127Z,96736.78
2023-12-13T13:30:59.404Z,96746.59
2023-12-13T13:33:31.735Z,96744.16
2023-12-13T13:36:01.009Z,96751.09
2023-12-13T13:38:30.160Z,96752.59
2023-12-13T13:41:01.167Z,96757.34
2023-12-13T13:43:31.583Z,96769.44
2023-12-13T13:46:03.979Z,96789.78
2023-12-13T13:48:33.350Z,96785.16
2023-12-13T13:51:12.019Z,96778.19
2023-12-13T13:53:41.275Z,96765.94
2023-12-13T13:56:12.115Z,96765.81
2023-12-13T13:58:41.203Z,96764.22
2023-12-13T14:01:13.281Z,96755.50
2023-12-13T14:03:45.232Z,96766.72
2023-12-13T14:06:17.117Z,96750.56
2023-12-13T14:08:46.320Z,96754.09
2023-12-13T14:11:16.920Z,96750.88
2023-12-13T14:13:46.129Z,96742.94
2023-12-13T14:16:16.036Z,96752.41
2023-12-13T14:18:46.438Z,96770.66
2023-12-13T14:21:15.754Z,96764.38
2023-12-13T14:23:44.833Z,96755.72
2023-12-13T14:26:18.202Z,96754.19
2023-12-13T14:28:47.289Z,96744.72
2023-12-13T14:31:20.757Z,96747.84
2023-12-13T14:33:50.340Z,96745.41
2023-12-13T14:36:19.501Z,96753.31
2023-12-13T14:38:49.246Z,96748.50
2023-12-13T14:41:19.989Z,96752.47
2023-12-13T14:43:49.391Z,96748.47
2023-12-13T14:46:18.603Z,96754.34
2023-12-13T14:48:52.194Z,96748.50
2023-12-13T14:51:22.780Z,96752.94
2023-12-13T14:53:57.708Z,96750.81
2023-12-13T14:56:28.505Z,96755.72
2023-12-13T14:59:00.215Z,96749.53
2023-12-13T15:01:30.363Z,96752.75
2023-12-13T15:04:00.076Z,96752.75
2023-12-13T15:06:33.337Z,96743.69
2023-12-13T15:09:03.393Z,96745.66
2023-12-13T15:11:34.604Z,96729.06
2023-12-13T15:14:06.250Z,96743.19
2023-12-13T15:16:35.937Z,96738.00
2023-12-13T15:19:07.740Z,96733.69
2023-12-13T15:21:37.044Z,96730.59
2023-12-13T15:24:06.791Z,96740.50
2023-12-13T15:26:40.511Z,96735.72
2023-12-13T15:29:10.108Z,96729.78
2023-12-13T15:31:40.374Z,96729.84
2023-12-13T15:34:13.781Z,96714.00
2023-12-13T15:36:45.929Z,96705.72
2023-12-13T15:39:17.607Z,96717.22
2023-12-13T15:41:49.549Z,96718.31
2023-12-13T15:44:19.631Z,96700.47
2023-12-13T15:46:48.981Z,96692.97
2023-12-13T15:49:18.421Z,96692.53
2023-12-13T15:51:47.847Z,96694.94
2023-12-13T15:54:16.981Z,96700.38
2023-12-13T15:56:48.260Z,96697.16
2023-12-13T15:59:17.470Z,96695.59
2023-12-13T16:01:46.596Z,96712.28
2023-12-13T16:04:18.075Z,96717.84
2023-12-13T16:06:49.385Z,96713.13
2023-12-13T16:09:18.757Z,96712.34
2023-12-13T16:11:49.308Z,96713.06
2023-12-13T16:14:18.417Z,96710.66
2023-12-13T16:16:47.456Z,96714.63
2023-12-13T16:19:17.437Z,96701.16
2023-12-13T16:21:46.918Z,96702.75
2023-12-13T16:24:16.016Z,96699.59
2023-12-13T16:26:45.132Z,96694.09
2023-12-13T16:29:22.024Z,96694.13
2023-12-13T16:31:57.331Z,96696.09
2023-12-13T16:34:26.550Z,96704.44
2023-12-13T16:36:55.670Z,96706.91
2023-12-13T16:39:24.817Z,96703.75
2023-12-13T16:41:57.895Z,96704.53
2023-12-13T16:44:28.698Z,96704.53
2023-12-13T16:46:57.800Z,96692.53
2023-12-13T16:49:28.574Z,96694.53
2023-12-13T16:51:58.545Z,96693.31
2023-12-13T16:54:27.667Z,96690.38
2023-12-13T16:56:59.359Z,96689.03
2023-12-13T16:59:32.437Z,96692.56
2023-12-13T17:02:01.921Z,96691.44
2023-12-13T17:04:31.272Z,96694.72
2023-12-13T17:07:00.433Z,96708.88
2023-12-13T17:09:29.757Z,96713.69
2023-12-13T17:11:58.787Z,96713.81
2023-12-13T17:14:29.343Z,96714.34
2023-12-13T17:16:58.408Z,96714.41
2023-12-13T17:19:27.942Z,96713.28
2023-12-13T17:22:00.303Z,96705.03
2023-12-13T17:24:32.860Z,96706.22
2023-12-13T17:27:05.470Z,96714.22
2023-12-13T17:29:38.173Z,96706.31
2023-12-13T17:32:07.986Z,96716.97
2023-12-13T17:34:39.388Z,96714.56
2023-12-13T17:37:14.697Z,96729.97
2023-12-13T17:39:46.168Z,96732.31
2023-12-13T17:42:15.481Z,96729.13
2023-12-13T17:44:49.362Z,96734.31
2023-12-13T17:47:20.753Z,96735.53
2023-12-13T17:49:49.949Z,96733.47
2023-12-13T17:52:19.218Z,96739.50
2023-12-13T17:54:48.716Z,96737.19
2023-12-13T17:57:17.867Z,96738.00
2023-12-13T17:59:49.460Z,96740.38
2023-12-13T18:02:20.295Z,96744.34
2023-12-13T18:04:49.826Z,96742.00
2023-12-13T18:07:19.021Z,96745.97
2023-12-13T18:09:48.651Z,96737.66
2023-12-13T18:12:18.165Z,96749.53
2023-12-13T18:14:48.631Z,96745.97
2023-12-13T18:17:17.807Z,96754.66
2023-12-13T18:19:46.948Z,96745.81
2023-12-13T18:22:16.130Z,96749.72
2023-12-13T18:24:45.228Z,96757.22
2023-12-13T18:27:14.656Z,96764.84
2023-12-13T18:29:43.844Z,96772.38
2023-12-13T18:32:17.348Z,96758.13
2023-12-13T18:34:46.540Z,96764.88
2023-12-13T18:37:15.929Z,96760.97
2023-12-13T18:39:45.473Z,96759.38
2023-12-13T18:42:14.737Z,96749.06
2023-12-13T18:44:44.020Z,96749.81
2023-12-13T18:47:17.543Z,96758.91
2023-12-13T18:49:47.048Z,96754.53
2023-12-13T18:52:16.340Z,96747.38
2023-12-13T18:54:45.703Z,96750.53
2023-12-13T18:57:15.137Z,96747.41
2023-12-13T18:59:44.248Z,96761.69
2023-12-13T19:02:15.070Z,96760.13
2023-12-13T19:04:44.332Z,96764.09
2023-12-13T19:07:13.484Z,96755.03
2023-12-13T19:09:42.872Z,96758.63
2023-12-13T19:12:12.073Z,96760.22
2023-12-13T19:14:41.211Z,96754.66
2023-12-13T19:17:10.738Z,96754.22
2023-12-13T19:19:41.452Z,96745.91
2023-12-13T19:22:10.920Z,96743.53
2023-12-13T19:24:40.517Z,96745.91
2023-12-13T19:27:14.575Z,96747.44
2023-12-13T19:29:43.616Z,96750.22
2023-12-13T19:32:12.746Z,96753.38
2023-12-13T19:34:43.519Z,96748.69
2023-12-13T19:37:12.737Z,96748.28
2023-12-13T19:39:41.998Z,96754.66
2023-12-13T19:42:11.704Z,96759.41
2023-12-13T19:44:41.103Z,96757.03
2023-12-13T19:47:10.237Z,96760.22
2023-12-13T19:49:40.545Z,96761.03
2023-12-13T19:52:12.900Z,96768.16
2023-12-13T19:54:46.741Z,96756.28
2023-12-13T19:57:17.423Z,96753.88
2023-12-13T19:59:51.000Z,96755.50
2023-12-13T20:02:23.865Z,96759.47
2023-12-13T20:04:57.699Z,96757.50
2023-12-13T20:07:30.389Z,96769.41
2023-12-13T20:10:00.215Z,96760.34
2023-12-13T20:12:29.857Z,96757.56
2023-12-13T20:14:59.203Z,96768.22
2023-12-13T20:17:28.320Z,96772.66
2023-12-13T20:19:57.560Z,96769.50
2023-12-13T20:22:28.189Z,96774.66
2023-12-13T20:25:01.598Z,96784.94
2023-12-13T20:27:31.354Z,96777.72
2023-12-13T20:30:02.530Z,96777.31
2023-12-13T20:32:33.748Z,96784.47
2023-12-13T20:35:06.182Z,96787.63
2023-12-13T20:37:38.977Z,96784.81
2023-12-13T20:40:11.557Z,96788.69
2023-12-13T20:42:44.196Z,96792.66
2023-12-13T20:45:16.201Z,96785.59
2023-12-13T20:47:45.703Z,96792.75
2023-12-13T20:50:17.688Z,96791.94
2023-12-13T20:52:49.809Z,96804.19
2023-12-13T20:55:24.816Z,96803.00
2023-12-13T20:57:54.885Z,96802.94
2023-12-13T21:00:25.069Z,96803.72
2023-12-13T21:02:54.784Z,96803.34
2023-12-13T21:05:24.032Z,96815.78
2023-12-13T21:08:04.914Z,96812.63
2023-12-13T21:10:41.229Z,96817.81
2023-12-13T21:13:11.438Z,96826.19
2023-12-13T21:15:44.750Z,96831.75
2023-12-13T21:18:15.870Z,96841.25
2023-12-13T21:20:46.109Z,96849.16
2023-12-13T21:23:21.579Z,96844.38
2023-12-13T21:25:51.559Z,96841.09
2023-12-13T21:28:20.810Z,96837.81
2023-12-13T21:30:50.923Z,96848.59
2023-12-13T21:33:23.055Z,96858.28
2023-12-13T21:35:52.478Z,96869.06
2023-12-13T21:38:23.776Z,96866.28
2023-12-13T21:40:54.206Z,96873.81
2023-12-13T21:43:23.811Z,96870.19
2023-12-13T21:45:53.425Z,96864.19
2023-12-13T21:48:22.898Z,96864.91
2023-12-13T21:50:52.199Z,96864.09
2023-12-13T21:53:22.839Z,96870.44
2023-12-13T21:55:54.643Z,96875.16
2023-12-13T21:58:23.979Z,96878.34
2023-12-13T22:00:53.262Z,96890.66
2023-12-13T22:03:22.750Z,96887.13
2023-12-13T22:05:51.842Z,96890.28
2023-12-13T22:08:22.415Z,96896.22
2023-12-13T22:10:52.817Z,96895.00
2023-12-13T22:13:22.081Z,96907.75
2023-12-13T22:15:52.418Z,96903.81
2023-12-13T22:18:26.544Z,96909.41
2023-12-13T22:20:56.510Z,96918.16
2023-12-13T22:23:33.888Z,96920.53
2023-12-13T22:26:06.521Z,96919.75
2023-12-13T22:28:35.655Z,96915.00
2023-12-13T22:31:05.120Z,96918.97
2023-12-13T22:33:34.524Z,96921.34
2023-12-13T22:36:03.977Z,96924.50
2023-12-13T22:38:34.589Z,96920.47
2023-12-13T22:41:03.820Z,96923.66
2023-12-13T22:43:33.042Z,96927.69
2023-12-13T22:46:02.170Z,96936.03
2023-12-13T22:48:31.307Z,96931.72
2023-12-13T22:51:00.455Z,96938.88
2023-12-13T22:53:29.509Z,96944.44
2023-12-13T22:56:00.048Z,96945.19
2023-12-13T22:58:29.136Z,96940.78
2023-12-13T23:00:58.238Z,96936.31
2023-12-13T23:03:27.705Z,96938.59
2023-12-13T23:05:56.912Z,96936.22
2023-12-13T23:08:26.080Z,96937.03
2023-12-13T23:10:55.401Z,96945.72
2023-12-13T23:13:25.992Z,96939.41
2023-12-13T23:15:55.438Z,96940.09
2023-12-13T23:18:24.727Z,96948.84
2023-12-13T23:20:53.860Z,96952.88
2023-12-13T23:23:24.459Z,96952.13
2023-12-13T23:25:54.292Z,96952.59
2023-12-13T23:28:23.500Z,96954.59
2023-12-13T23:30:54.054Z,96967.69
2023-12-13T23:33:23.455Z,96962.91
2023-12-13T23:35:52.544Z,96954.59
2023-12-13T23:38:21.597Z,96967.25
2023-12-13T23:40:50.715Z,96958.47
2023-12-13T23:43:19.857Z,96953.28
2023-12-13T23:45:48.929Z,96948.50
2023-12-13T23:48:21.932Z,96948.03
2023-12-13T23:50:51.451Z,96941.75
2023-12-13T23:53:23.121Z,96952.34
2023-12-13T23:55:52.430Z,96951.19
2023-12-13T23:58:21.618Z,96955.53
